Gretna, Virginia
Current Conditions -  °F | °C
As of 11:15 PM on Thursday 27 Nov 2014 (Local Time) from K0V4 Reporting Station
Broken Clouds Broken Clouds  
Wind Chill: 28°   Ceiling: 5000
Heat Index: 36°   Visibility: 10mi
Dew Point: 23°   Wind: 10mph
Humidity: 59%   Direction: 280°W
Pressure: 30.24"   Gusts: 16mph
Location:  36.95°N, 79.36°W
Report Text: K0V4 280415Z AUTO 28009G14KT 10SM BKN050 02/M05 A3024 RMK AO1 T00221051
Loading
Personal Weather Stations






























Interactive Weather Map New forecast layout! Learn more

10-Day Weather Forecast

Advertisements
Track Severe Weather on mobile